Time;durP1;ratioP1;P1;durP2;ratioP2;P2;SDS_P1;SDS_P2;PMS_P1;PMS_P2;Temp;Humidity;BMP_temperature;BMP_pressure;BME280_temperature;BME280_humidity;BME280_pressure;Samples;Min_cycle;Max_cycle;Signal;HPM_P1;HPM_P2
2022/01/23 00:02:03;;;;;;;24.98;12.80;;;;;;;;;;5029154;28;20184;-80
2022/01/23 00:04:28;;;;;;;17.33;13.32;;;;;;;;;;5033454;28;20181;-80
2022/01/23 00:06:54;;;;;;;18.83;13.43;;;;;;;;;;5028734;28;20180;-80
2022/01/23 00:09:20;;;;;;;17.48;12.85;;;;;;;;;;5030227;28;20189;-80
2022/01/23 00:11:51;;;;;;;16.30;13.65;;;;;;;;;;5046775;28;20209;-80
2022/01/23 00:17:18;;;;;;;16.50;12.77;;;;;;;;;;5047654;28;20213;-80
2022/01/23 00:19:48;;;;;;;23.05;14.70;;;;;;;;;;5028785;28;20178;-80
2022/01/23 00:22:15;;;;;;;20.40;15.15;;;;;;;;;;5028127;28;20204;-80
2022/01/23 00:30:21;;;;;;;19.77;14.48;;;;;;;;;;5046192;28;20220;-80
2022/01/23 00:32:47;;;;;;;18.77;14.60;;;;;;;;;;5028879;28;20177;-80
2022/01/23 00:35:13;;;;;;;22.10;14.43;;;;;;;;;;5028392;28;20186;-80
2022/01/23 00:37:39;;;;;;;21.40;14.55;;;;;;;;;;5046423;28;20212;-80
2022/01/23 00:40:05;;;;;;;21.13;14.18;;;;;;;;;;5028122;28;20185;-80
2022/01/23 00:42:32;;;;;;;25.42;14.63;;;;;;;;;;5027680;28;20202;-81
2022/01/23 00:45:21;;;;;;;18.77;14.18;;;;;;;;;;5045879;28;20264;-80
2022/01/23 00:47:44;;;;;;;22.05;14.90;;;;;;;;;;5044218;28;20222;-80
2022/01/23 00:50:10;;;;;;;21.92;15.00;;;;;;;;;;5042590;28;20225;-80
2022/01/23 00:52:36;;;;;;;18.70;14.07;;;;;;;;;;5043872;28;20194;-80
2022/01/23 00:55:04;;;;;;;22.25;14.98;;;;;;;;;;5044424;28;20264;-80
2022/01/23 00:57:31;;;;;;;21.05;14.50;;;;;;;;;;5043021;28;20197;-80
2022/01/23 00:59:57;;;;;;;24.00;14.60;;;;;;;;;;5042385;28;20193;-80
2022/01/23 01:02:23;;;;;;;20.27;14.15;;;;;;;;;;5044662;28;20178;-80
2022/01/23 01:04:49;;;;;;;22.73;14.88;;;;;;;;;;5043821;28;20213;-80
2022/01/23 01:07:15;;;;;;;21.90;15.23;;;;;;;;;;5044586;28;20185;-80
2022/01/23 01:09:43;;;;;;;23.90;14.90;;;;;;;;;;5045259;28;20760;-80
2022/01/23 01:12:17;;;;;;;22.42;15.13;;;;;;;;;;5043371;28;20200;-80
2022/01/23 01:33:51;;;;;;;16.60;12.23;;;;;;;;;;4983825;28;20168;-81
2022/01/23 01:36:35;;;;;;;19.20;13.40;;;;;;;;;;4966522;28;20296;-81
2022/01/23 01:39:01;;;;;;;19.73;13.50;;;;;;;;;;4981977;28;20630;-81
2022/01/23 01:41:27;;;;;;;19.48;12.90;;;;;;;;;;4965712;28;20759;-81
2022/01/23 01:43:54;;;;;;;18.83;12.32;;;;;;;;;;4981933;28;20224;-81
2022/01/23 01:46:21;;;;;;;17.50;12.38;;;;;;;;;;4981977;28;20235;-80
2022/01/23 01:48:46;;;;;;;17.27;12.88;;;;;;;;;;4982855;28;20195;-80
2022/01/23 01:51:16;;;;;;;21.08;13.98;;;;;;;;;;4982338;28;20223;-81
2022/01/23 01:53:48;;;;;;;20.10;14.13;;;;;;;;;;4962974;28;20188;-80
2022/01/23 01:56:14;;;;;;;20.25;12.65;;;;;;;;;;5002957;28;20230;-81
2022/01/23 02:02:42;;;;;;;16.35;12.65;;;;;;;;;;5042607;28;20182;-81
2022/01/23 02:09:25;;;;;;;18.55;11.85;;;;;;;;;;5043011;28;20216;-80
2022/01/23 02:12:24;;;;;;;14.02;10.07;;;;;;;;;;5043024;28;20170;-80
2022/01/23 02:55:16;;;;;;;18.23;11.50;;;;;;;;;;5000965;28;20191;-80
2022/01/23 03:00:17;;;;;;;20.95;11.10;;;;;;;;;;5041616;28;20194;-81
2022/01/23 03:02:46;;;;;;;15.75;11.25;;;;;;;;;;5041072;28;20638;-80
2022/01/23 03:05:22;;;;;;;17.13;11.70;;;;;;;;;;5042270;28;20186;-80
2022/01/23 03:10:20;;;;;;;17.98;11.95;;;;;;;;;;5046234;28;20223;-81
2022/01/23 03:29:16;;;;;;;19.90;13.27;;;;;;;;;;5004186;28;20298;-83
2022/01/23 03:31:44;;;;;;;17.10;12.38;;;;;;;;;;4986849;28;20175;-80
2022/01/23 03:34:11;;;;;;;20.77;11.77;;;;;;;;;;4987649;28;20194;-81
2022/01/23 03:36:37;;;;;;;15.85;11.40;;;;;;;;;;5005136;28;20175;-81
2022/01/23 03:39:07;;;;;;;19.40;12.45;;;;;;;;;;5002913;28;20191;-80
2022/01/23 03:41:34;;;;;;;17.67;11.85;;;;;;;;;;5003208;28;20183;-80
2022/01/23 03:44:01;;;;;;;19.67;13.25;;;;;;;;;;5003225;28;20671;-80
2022/01/23 03:46:46;;;;;;;19.80;13.27;;;;;;;;;;4986631;28;20390;-81
2022/01/23 03:49:31;;;;;;;17.23;12.25;;;;;;;;;;4987474;28;20279;-81
2022/01/23 03:51:58;;;;;;;20.48;13.30;;;;;;;;;;5001412;28;20175;-80
2022/01/23 03:54:25;;;;;;;17.52;12.57;;;;;;;;;;5004751;28;20319;-81
2022/01/23 03:56:51;;;;;;;22.33;13.25;;;;;;;;;;5003677;28;20270;-81
2022/01/23 03:59:17;;;;;;;19.17;13.35;;;;;;;;;;5008687;28;20310;-81
2022/01/23 04:01:43;;;;;;;17.30;13.05;;;;;;;;;;5039535;28;20182;-81
2022/01/23 04:04:25;;;;;;;20.05;13.02;;;;;;;;;;5044347;28;20186;-81
2022/01/23 04:06:51;;;;;;;20.13;12.98;;;;;;;;;;5040969;28;20178;-81
2022/01/23 04:09:17;;;;;;;19.05;12.73;;;;;;;;;;5044440;28;20176;-80
2022/01/23 04:11:44;;;;;;;18.17;11.77;;;;;;;;;;5044201;28;20193;-81
2022/01/23 04:14:12;;;;;;;17.27;11.40;;;;;;;;;;5044544;28;20185;-80
2022/01/23 04:59:47;;;;;;;15.07;11.38;;;;;;;;;;4957493;28;20264;-80
2022/01/23 05:04:47;;;;;;;20.10;11.27;;;;;;;;;;4961428;29;20328;-81
2022/01/23 05:07:15;;;;;;;19.42;11.13;;;;;;;;;;4962113;29;24898;-81
2022/01/23 05:09:41;;;;;;;17.20;11.70;;;;;;;;;;4963709;29;20231;-82
2022/01/23 05:12:09;;;;;;;16.92;11.32;;;;;;;;;;4963054;29;20705;-82
2022/01/23 05:14:38;;;;;;;17.23;11.98;;;;;;;;;;4963298;29;20199;-81
2022/01/23 05:17:05;;;;;;;19.20;12.27;;;;;;;;;;4963722;28;20184;-81
2022/01/23 05:19:33;;;;;;;13.60;10.07;;;;;;;;;;4959815;29;20201;-81
2022/01/23 05:24:33;;;;;;;16.48;9.88;;;;;;;;;;4952205;29;20185;-81
2022/01/23 05:27:03;;;;;;;14.52;10.70;;;;;;;;;;4960534;29;20208;-82
2022/01/23 05:29:29;;;;;;;17.17;10.68;;;;;;;;;;4959000;29;20223;-82
2022/01/23 05:31:55;;;;;;;16.02;9.48;;;;;;;;;;5008113;28;20194;-82
2022/01/23 05:34:23;;;;;;;14.02;10.45;;;;;;;;;;5037980;28;20196;-82
2022/01/23 05:36:49;;;;;;;16.15;11.43;;;;;;;;;;5040079;28;20638;-82
2022/01/23 05:39:18;;;;;;;11.63;8.55;;;;;;;;;;5059575;28;20177;-81
2022/01/23 05:41:45;;;;;;;12.75;8.75;;;;;;;;;;5041988;28;20211;-80
2022/01/23 05:44:11;;;;;;;16.00;9.23;;;;;;;;;;5041104;28;20192;-81
2022/01/23 05:46:37;;;;;;;10.18;8.00;;;;;;;;;;5040249;28;20309;-80
2022/01/23 05:49:04;;;;;;;11.65;9.75;;;;;;;;;;5043456;28;20241;-79
2022/01/23 05:51:30;;;;;;;12.70;9.23;;;;;;;;;;5042293;28;20237;-81
2022/01/23 05:53:56;;;;;;;13.20;9.10;;;;;;;;;;5042256;28;20213;-80
2022/01/23 05:56:22;;;;;;;13.85;9.02;;;;;;;;;;5042574;28;20186;-81
2022/01/23 05:58:48;;;;;;;14.77;9.65;;;;;;;;;;5042566;28;20189;-80
2022/01/23 06:01:14;;;;;;;15.68;11.95;;;;;;;;;;5043041;28;20245;-81
2022/01/23 06:03:40;;;;;;;12.88;8.88;;;;;;;;;;5042171;28;20220;-80
2022/01/23 06:06:06;;;;;;;14.10;10.35;;;;;;;;;;5041811;28;20198;-80
2022/01/23 06:08:32;;;;;;;14.52;9.60;;;;;;;;;;5037977;28;20195;-80
2022/01/23 06:10:59;;;;;;;12.70;9.50;;;;;;;;;;5032490;28;20213;-80
2022/01/23 06:13:26;;;;;;;15.00;10.73;;;;;;;;;;5042659;28;20178;-82
2022/01/23 06:15:53;;;;;;;17.73;10.90;;;;;;;;;;5042041;28;20189;-81
2022/01/23 06:18:19;;;;;;;15.02;10.60;;;;;;;;;;5040441;28;20303;-81
2022/01/23 06:20:45;;;;;;;14.90;9.73;;;;;;;;;;5043184;28;20231;-82
2022/01/23 06:23:12;;;;;;;14.88;10.38;;;;;;;;;;5042941;28;20186;-83
2022/01/23 06:25:41;;;;;;;14.95;11.05;;;;;;;;;;5040890;28;20201;-81
2022/01/23 06:28:07;;;;;;;13.95;11.15;;;;;;;;;;5043172;28;20197;-81
2022/01/23 06:30:34;;;;;;;21.50;11.20;;;;;;;;;;5041265;28;20213;-82
2022/01/23 06:33:00;;;;;;;15.45;11.25;;;;;;;;;;5035067;28;20205;-82
2022/01/23 06:35:28;;;;;;;16.02;10.80;;;;;;;;;;5032428;28;20210;-81
2022/01/23 06:37:54;;;;;;;12.90;10.45;;;;;;;;;;5042397;28;20181;-82
2022/01/23 06:40:20;;;;;;;19.90;12.00;;;;;;;;;;5042385;28;20189;-81
2022/01/23 06:42:46;;;;;;;18.48;11.38;;;;;;;;;;5038397;28;20212;-82
2022/01/23 06:45:12;;;;;;;18.05;12.40;;;;;;;;;;5029888;28;20186;-82
2022/01/23 06:47:39;;;;;;;20.70;12.90;;;;;;;;;;5041477;28;20315;-82
2022/01/23 06:50:05;;;;;;;16.83;12.35;;;;;;;;;;5041343;28;20205;-82
2022/01/23 06:52:31;;;;;;;18.15;13.10;;;;;;;;;;5039055;28;20189;-81
2022/01/23 06:54:57;;;;;;;18.40;11.85;;;;;;;;;;5032967;28;20193;-83
2022/01/23 06:57:23;;;;;;;18.73;11.40;;;;;;;;;;5042114;28;20627;-81
2022/01/23 06:59:49;;;;;;;18.98;11.88;;;;;;;;;;5040795;28;20212;-82
2022/01/23 07:02:15;;;;;;;15.70;11.40;;;;;;;;;;5040642;28;20189;-82
2022/01/23 07:04:43;;;;;;;15.93;10.90;;;;;;;;;;5040874;28;20188;-82
2022/01/23 07:07:09;;;;;;;21.40;12.13;;;;;;;;;;5041370;28;20436;-82
2022/01/23 07:09:35;;;;;;;16.45;10.75;;;;;;;;;;5040625;28;20460;-81
2022/01/23 07:12:08;;;;;;;14.75;9.70;;;;;;;;;;5036447;28;20178;-82
2022/01/23 07:14:34;;;;;;;14.30;10.13;;;;;;;;;;5039973;28;20196;-84
2022/01/23 07:17:00;;;;;;;14.93;10.23;;;;;;;;;;5031130;28;20245;-82
2022/01/23 07:19:26;;;;;;;16.15;10.70;;;;;;;;;;5041518;28;20193;-81
2022/01/23 07:21:52;;;;;;;15.25;10.95;;;;;;;;;;5040374;28;20173;-81
2022/01/23 07:24:19;;;;;;;18.42;11.20;;;;;;;;;;5041657;28;20269;-81
2022/01/23 07:26:45;;;;;;;16.85;10.70;;;;;;;;;;5040443;28;20204;-82
2022/01/23 07:29:11;;;;;;;14.10;10.80;;;;;;;;;;5034277;28;20212;-81
2022/01/23 07:34:04;;;;;;;16.25;10.65;;;;;;;;;;5041405;28;20188;-81
2022/01/23 07:36:30;;;;;;;14.25;10.10;;;;;;;;;;5042438;28;20224;-82
2022/01/23 07:38:57;;;;;;;14.60;9.10;;;;;;;;;;5040296;28;20185;-83
2022/01/23 07:41:23;;;;;;;35.97;11.38;;;;;;;;;;5039373;28;20186;-80
2022/01/23 07:43:50;;;;;;;13.70;8.52;;;;;;;;;;5040283;28;20220;-82
2022/01/23 07:46:16;;;;;;;12.73;8.60;;;;;;;;;;5029770;28;20252;-82
2022/01/23 07:48:42;;;;;;;14.40;9.27;;;;;;;;;;5041768;28;20232;-82
2022/01/23 07:51:08;;;;;;;15.27;9.90;;;;;;;;;;5034374;28;20745;-81
2022/01/23 07:53:34;;;;;;;14.25;9.07;;;;;;;;;;5034467;28;20193;-81
2022/01/23 07:56:02;;;;;;;12.73;8.98;;;;;;;;;;5041291;28;20194;-81
2022/01/23 07:58:28;;;;;;;12.18;8.88;;;;;;;;;;5042078;28;20254;-81
2022/01/23 08:00:54;;;;;;;16.05;11.57;;;;;;;;;;5041304;28;20182;-81
2022/01/23 08:03:20;;;;;;;13.98;9.68;;;;;;;;;;5045248;28;20178;-81
2022/01/23 08:05:47;;;;;;;14.30;9.05;;;;;;;;;;5042878;28;20193;-81
2022/01/23 08:08:13;;;;;;;13.48;8.82;;;;;;;;;;5044140;28;20638;-81
2022/01/23 08:10:39;;;;;;;12.38;9.50;;;;;;;;;;5044105;28;20240;-80
2022/01/23 08:13:05;;;;;;;16.25;9.93;;;;;;;;;;5045676;28;20197;-81
2022/01/23 08:15:32;;;;;;;17.40;11.18;;;;;;;;;;5041161;28;20263;-81
2022/01/23 08:18:05;;;;;;;13.07;9.48;;;;;;;;;;5053718;28;20186;-81
2022/01/23 08:20:33;;;;;;;14.32;9.88;;;;;;;;;;5042239;28;20197;-81
2022/01/23 08:23:01;;;;;;;18.17;11.52;;;;;;;;;;5042462;28;20625;-82
2022/01/23 08:25:27;;;;;;;14.10;9.48;;;;;;;;;;5041222;28;20194;-82
2022/01/23 08:27:53;;;;;;;15.60;10.52;;;;;;;;;;5040929;28;20212;-83
2022/01/23 08:30:19;;;;;;;14.63;9.85;;;;;;;;;;5040547;28;20284;-81
2022/01/23 08:32:45;;;;;;;14.55;9.68;;;;;;;;;;5035897;28;20578;-81
2022/01/23 08:35:11;;;;;;;14.93;9.73;;;;;;;;;;5042030;28;20196;-79
2022/01/23 08:37:37;;;;;;;14.13;10.32;;;;;;;;;;5056420;28;20187;-82
2022/01/23 08:40:04;;;;;;;12.88;9.50;;;;;;;;;;5038395;28;20182;-82
2022/01/23 08:42:30;;;;;;;11.85;9.05;;;;;;;;;;5044763;28;20269;-81
2022/01/23 08:44:56;;;;;;;14.35;9.18;;;;;;;;;;5040159;28;20182;-80
2022/01/23 08:47:23;;;;;;;13.32;9.02;;;;;;;;;;5035659;28;20253;-80
2022/01/23 08:49:50;;;;;;;10.68;8.10;;;;;;;;;;5038611;28;20202;-79
2022/01/23 08:52:18;;;;;;;14.63;8.65;;;;;;;;;;5037105;28;20411;-79
2022/01/23 08:54:46;;;;;;;15.93;8.85;;;;;;;;;;5033351;28;20174;-80
2022/01/23 08:57:12;;;;;;;13.85;8.35;;;;;;;;;;5033373;28;20178;-79
2022/01/23 08:59:39;;;;;;;13.43;9.10;;;;;;;;;;5036430;28;20218;-81
2022/01/23 09:02:05;;;;;;;13.48;9.05;;;;;;;;;;5043337;28;20185;-80
2022/01/23 09:04:31;;;;;;;14.60;8.45;;;;;;;;;;5042702;28;20185;-79
2022/01/23 09:06:57;;;;;;;12.38;8.02;;;;;;;;;;5043500;28;20186;-81
2022/01/23 09:09:24;;;;;;;13.40;9.02;;;;;;;;;;5040263;28;20173;-82
2022/01/23 09:11:58;;;;;;;14.18;8.65;;;;;;;;;;5041615;28;20547;-83
2022/01/23 09:14:24;;;;;;;13.07;8.73;;;;;;;;;;5040441;28;20216;-80
2022/01/23 09:16:51;;;;;;;14.63;9.32;;;;;;;;;;5042963;28;20186;-81
2022/01/23 09:19:18;;;;;;;13.68;8.85;;;;;;;;;;5042860;28;20178;-81
2022/01/23 09:21:45;;;;;;;12.82;8.90;;;;;;;;;;5042136;28;20170;-82
2022/01/23 09:24:11;;;;;;;12.73;8.90;;;;;;;;;;5041429;28;20181;-81
2022/01/23 09:26:37;;;;;;;14.98;9.35;;;;;;;;;;5042325;28;20584;-82
2022/01/23 09:29:13;;;;;;;16.13;9.25;;;;;;;;;;5042127;28;20192;-81
2022/01/23 09:31:48;;;;;;;12.70;8.80;;;;;;;;;;5041539;28;20193;-82
2022/01/23 09:34:15;;;;;;;15.30;8.55;;;;;;;;;;5043704;28;20181;-81
2022/01/23 09:36:41;;;;;;;12.45;9.07;;;;;;;;;;5043281;28;20184;-82
2022/01/23 09:39:07;;;;;;;14.68;10.70;;;;;;;;;;5042591;28;20214;-81
2022/01/23 09:41:35;;;;;;;13.73;9.13;;;;;;;;;;5041936;28;20616;-81
2022/01/23 09:44:02;;;;;;;12.80;7.85;;;;;;;;;;5039182;28;20244;-81
2022/01/23 09:46:28;;;;;;;12.27;9.02;;;;;;;;;;5030854;28;20307;-82
2022/01/23 09:48:54;;;;;;;13.70;9.98;;;;;;;;;;5039116;28;20200;-81
2022/01/23 09:51:25;;;;;;;10.45;8.45;;;;;;;;;;5039541;28;20208;-80
2022/01/23 09:53:54;;;;;;;11.68;8.85;;;;;;;;;;5040349;28;20268;-81
2022/01/23 09:56:26;;;;;;;10.30;7.35;;;;;;;;;;5043338;28;20190;-81
2022/01/23 09:58:52;;;;;;;12.98;8.70;;;;;;;;;;5041771;28;20186;-80
2022/01/23 10:01:20;;;;;;;13.60;8.65;;;;;;;;;;5042124;28;20250;-82
2022/01/23 10:03:46;;;;;;;12.60;8.63;;;;;;;;;;5040215;28;20170;-80
2022/01/23 10:06:12;;;;;;;13.43;8.98;;;;;;;;;;5041958;28;20197;-80
2022/01/23 10:08:38;;;;;;;12.35;9.52;;;;;;;;;;5041449;28;20196;-80
2022/01/23 10:11:09;;;;;;;9.95;7.57;;;;;;;;;;5042457;28;20591;-80
2022/01/23 10:13:36;;;;;;;11.45;8.95;;;;;;;;;;5042845;28;20181;-80
2022/01/23 10:16:02;;;;;;;14.57;8.65;;;;;;;;;;5041355;28;20615;-80
2022/01/23 10:18:28;;;;;;;11.90;8.52;;;;;;;;;;5056125;28;20170;-80
2022/01/23 10:20:54;;;;;;;14.07;9.63;;;;;;;;;;5043101;28;20189;-81
2022/01/23 10:23:20;;;;;;;12.35;9.95;;;;;;;;;;5042594;28;20528;-80
2022/01/23 10:25:48;;;;;;;12.38;9.32;;;;;;;;;;5042148;28;20182;-81
2022/01/23 10:28:20;;;;;;;14.48;9.95;;;;;;;;;;5043342;28;20240;-80
2022/01/23 10:30:48;;;;;;;14.98;9.80;;;;;;;;;;5039692;28;20220;-81
2022/01/23 10:33:20;;;;;;;17.77;10.60;;;;;;;;;;5043194;28;20174;-81
2022/01/23 10:36:07;;;;;;;13.75;10.60;;;;;;;;;;5041485;28;20205;-81
2022/01/23 10:38:52;;;;;;;15.93;10.60;;;;;;;;;;5041421;28;20205;-81
2022/01/23 10:47:34;;;;;;;15.88;9.65;;;;;;;;;;5032416;28;20274;-81
2022/01/23 10:50:08;;;;;;;15.23;9.65;;;;;;;;;;4933266;29;20284;-79
2022/01/23 10:52:35;;;;;;;15.50;9.98;;;;;;;;;;4942231;29;20203;-80
2022/01/23 10:55:03;;;;;;;15.35;8.45;;;;;;;;;;4927158;29;20172;-81
2022/01/23 10:57:33;;;;;;;15.35;7.88;;;;;;;;;;4928238;29;20379;-80
2022/01/23 11:00:02;;;;;;;11.20;8.65;;;;;;;;;;4926482;29;20325;-80
2022/01/23 11:02:28;;;;;;;12.25;8.60;;;;;;;;;;4926839;29;20193;-80
2022/01/23 11:05:03;;;;;;;12.05;7.85;;;;;;;;;;4925807;29;20201;-80
2022/01/23 11:07:29;;;;;;;11.43;7.45;;;;;;;;;;4934713;29;20263;-79
2022/01/23 11:09:56;;;;;;;12.35;7.95;;;;;;;;;;4926704;29;20629;-79
2022/01/23 11:18:00;;;;;;;10.73;7.15;;;;;;;;;;4923758;29;20200;-79
2022/01/23 11:20:39;;;;;;;11.23;7.55;;;;;;;;;;4907230;29;20204;-80
2022/01/23 11:23:12;;;;;;;10.98;6.50;;;;;;;;;;4937066;28;20211;-79
2022/01/23 11:25:39;;;;;;;10.07;7.07;;;;;;;;;;4985294;28;20195;-79
2022/01/23 11:28:05;;;;;;;10.50;6.95;;;;;;;;;;4981256;28;20180;-79
2022/01/23 11:30:49;;;;;;;10.80;7.13;;;;;;;;;;5003434;28;20211;-80
2022/01/23 11:33:19;;;;;;;11.65;6.30;;;;;;;;;;5004297;28;20197;-81
2022/01/23 11:35:45;;;;;;;8.95;6.32;;;;;;;;;;5005377;28;20183;-81
2022/01/23 11:38:19;;;;;;;6.85;5.22;;;;;;;;;;5004286;28;20854;-80
2022/01/23 11:54:36;;;;;;;9.63;6.50;;;;;;;;;;5025438;28;20201;-80
2022/01/23 11:57:03;;;;;;;8.98;6.72;;;;;;;;;;5028535;28;20183;-80
2022/01/23 11:59:34;;;;;;;11.70;7.78;;;;;;;;;;5009008;28;20659;-80
2022/01/23 12:02:13;;;;;;;11.25;7.35;;;;;;;;;;5028590;28;20194;-79
2022/01/23 12:04:43;;;;;;;16.63;9.68;;;;;;;;;;5008101;28;20190;-79
2022/01/23 12:07:13;;;;;;;14.48;8.60;;;;;;;;;;5026979;28;20254;-80
2022/01/23 12:10:05;;;;;;;15.50;9.68;;;;;;;;;;5010134;28;20273;-79
2022/01/23 12:12:40;;;;;;;11.25;8.90;;;;;;;;;;4944311;29;20464;-80
2022/01/23 12:18:21;;;;;;;11.60;7.20;;;;;;;;;;4946254;29;20224;-81
2022/01/23 12:20:48;;;;;;;13.20;8.45;;;;;;;;;;4943601;29;20193;-80
2022/01/23 12:23:14;;;;;;;8.05;5.97;;;;;;;;;;4946675;29;20204;-80
2022/01/23 12:25:50;;;;;;;11.40;7.00;;;;;;;;;;4947686;29;20196;-80
2022/01/23 12:28:20;;;;;;;13.55;7.20;;;;;;;;;;4947374;29;20271;-81
2022/01/23 12:30:50;;;;;;;10.52;7.43;;;;;;;;;;4944846;29;20733;-80
2022/01/23 12:33:21;;;;;;;14.02;8.60;;;;;;;;;;4929852;29;20239;-80
2022/01/23 12:35:49;;;;;;;11.43;8.25;;;;;;;;;;4945066;29;20189;-81
2022/01/23 12:38:16;;;;;;;10.35;7.57;;;;;;;;;;4930373;29;20188;-80
2022/01/23 12:40:45;;;;;;;11.40;7.25;;;;;;;;;;4935835;29;20674;-81
2022/01/23 12:43:13;;;;;;;10.95;7.85;;;;;;;;;;4930509;29;20201;-81
2022/01/23 12:45:57;;;;;;;12.88;8.70;;;;;;;;;;4945765;29;20215;-81
2022/01/23 12:48:26;;;;;;;11.20;8.63;;;;;;;;;;4985859;28;20219;-80
2022/01/23 12:50:54;;;;;;;13.40;8.68;;;;;;;;;;5040854;28;20217;-80
2022/01/23 12:53:20;;;;;;;11.38;7.63;;;;;;;;;;5039561;28;20179;-81
2022/01/23 12:56:05;;;;;;;15.05;7.28;;;;;;;;;;5043359;28;20269;-80
2022/01/23 12:58:34;;;;;;;10.07;7.38;;;;;;;;;;5043531;28;20540;-82
2022/01/23 13:01:01;;;;;;;11.35;7.38;;;;;;;;;;5044021;28;20182;-81
2022/01/23 13:03:27;;;;;;;18.00;8.93;;;;;;;;;;5043444;28;20178;-81
2022/01/23 13:05:54;;;;;;;9.50;6.50;;;;;;;;;;5043688;28;20185;-81
2022/01/23 13:08:24;;;;;;;11.18;7.32;;;;;;;;;;5042403;28;20189;-80
2022/01/23 13:11:18;;;;;;;11.88;7.85;;;;;;;;;;5041803;28;20209;-80
2022/01/23 13:13:51;;;;;;;11.43;6.55;;;;;;;;;;5039934;28;20718;-81
2022/01/23 13:16:31;;;;;;;10.10;7.00;;;;;;;;;;5032097;28;20194;-80
2022/01/23 13:30:34;;;;;;;9.80;6.72;;;;;;;;;;4981403;28;20805;-80
2022/01/23 13:33:08;;;;;;;7.50;5.65;;;;;;;;;;4966304;28;20235;-80
2022/01/23 13:35:39;;;;;;;13.98;6.90;;;;;;;;;;4974606;28;20216;-81
2022/01/23 13:38:10;;;;;;;10.75;6.75;;;;;;;;;;4971790;28;20252;-81
2022/01/23 13:40:40;;;;;;;9.60;6.57;;;;;;;;;;4966111;28;20262;-80
2022/01/23 13:54:18;;;;;;;12.60;7.90;;;;;;;;;;4977440;28;20191;-80
2022/01/23 13:59:53;;;;;;;10.95;7.43;;;;;;;;;;4977371;28;20220;-80
2022/01/23 14:02:25;;;;;;;12.05;8.07;;;;;;;;;;4969910;28;20191;-80
2022/01/23 14:05:03;;;;;;;12.23;7.72;;;;;;;;;;4995159;28;20194;-80
2022/01/23 14:07:30;;;;;;;12.75;7.85;;;;;;;;;;5013313;28;20771;-79
2022/01/23 14:09:57;;;;;;;10.25;7.00;;;;;;;;;;5043743;28;20213;-80
2022/01/23 14:12:24;;;;;;;12.30;8.68;;;;;;;;;;5042656;28;20173;-80
2022/01/23 14:14:55;;;;;;;10.48;7.72;;;;;;;;;;5039042;28;20653;-80
2022/01/23 14:17:21;;;;;;;13.93;8.68;;;;;;;;;;5042883;28;20186;-80
2022/01/23 14:19:58;;;;;;;10.48;8.30;;;;;;;;;;5042766;28;20186;-81
2022/01/23 14:22:31;;;;;;;9.90;7.03;;;;;;;;;;5036328;28;20417;-82
2022/01/23 14:25:13;;;;;;;10.48;7.85;;;;;;;;;;5042296;28;20192;-81
2022/01/23 14:27:39;;;;;;;11.75;8.93;;;;;;;;;;5055822;28;20197;-80
2022/01/23 14:30:08;;;;;;;16.52;9.10;;;;;;;;;;5040749;28;20898;-81
2022/01/23 14:32:53;;;;;;;15.75;8.35;;;;;;;;;;5040461;28;20448;-80
2022/01/23 14:35:21;;;;;;;13.20;9.13;;;;;;;;;;5041550;28;20181;-80
2022/01/23 14:37:48;;;;;;;11.27;9.10;;;;;;;;;;5041362;28;20239;-80
2022/01/23 14:40:19;;;;;;;17.27;10.27;;;;;;;;;;5041415;28;20261;-80
2022/01/23 14:43:06;;;;;;;15.93;10.27;;;;;;;;;;5035682;28;20182;-81
2022/01/23 14:45:34;;;;;;;13.68;8.43;;;;;;;;;;5039744;28;20182;-81
2022/01/23 14:48:00;;;;;;;15.18;10.85;;;;;;;;;;5037371;28;20226;-80
2022/01/23 14:50:28;;;;;;;14.63;9.52;;;;;;;;;;5034399;28;20213;-80
2022/01/23 14:52:55;;;;;;;13.77;9.02;;;;;;;;;;5036360;28;20198;-80
2022/01/23 14:55:21;;;;;;;15.63;9.02;;;;;;;;;;5040674;28;20194;-80
2022/01/23 14:57:48;;;;;;;15.45;9.73;;;;;;;;;;5042544;28;20238;-80
2022/01/23 15:00:14;;;;;;;12.30;9.15;;;;;;;;;;5042874;28;20181;-81
2022/01/23 15:02:44;;;;;;;14.20;9.27;;;;;;;;;;5043189;28;20189;-81
2022/01/23 15:05:10;;;;;;;14.20;9.95;;;;;;;;;;5044780;28;20186;-81
2022/01/23 15:07:37;;;;;;;13.73;8.60;;;;;;;;;;5045202;28;20190;-81
2022/01/23 15:10:05;;;;;;;13.77;8.88;;;;;;;;;;5046107;28;20201;-81
2022/01/23 15:12:31;;;;;;;15.98;9.00;;;;;;;;;;5060892;28;20524;-81
2022/01/23 15:14:57;;;;;;;15.45;10.57;;;;;;;;;;5046156;28;20253;-81
2022/01/23 15:17:25;;;;;;;17.27;10.50;;;;;;;;;;5046088;28;20182;-81
2022/01/23 15:19:51;;;;;;;15.30;9.90;;;;;;;;;;5045481;28;20186;-81
2022/01/23 15:22:17;;;;;;;14.70;9.75;;;;;;;;;;5030660;28;20185;-80
2022/01/23 15:24:44;;;;;;;20.88;11.35;;;;;;;;;;5045908;28;20169;-81
2022/01/23 15:27:10;;;;;;;16.08;9.85;;;;;;;;;;5044531;28;20185;-81
2022/01/23 15:29:36;;;;;;;14.57;10.15;;;;;;;;;;5044557;28;20200;-81
2022/01/23 15:32:03;;;;;;;15.13;9.60;;;;;;;;;;5045222;28;20182;-81
2022/01/23 15:34:30;;;;;;;17.58;10.32;;;;;;;;;;5045013;28;20655;-81
2022/01/23 15:36:56;;;;;;;18.90;11.73;;;;;;;;;;5044383;28;20173;-81
2022/01/23 15:39:25;;;;;;;18.15;10.77;;;;;;;;;;5045778;28;20170;-81
2022/01/23 15:41:51;;;;;;;16.85;9.90;;;;;;;;;;5046406;28;20178;-81
2022/01/23 15:44:17;;;;;;;16.20;9.43;;;;;;;;;;5044452;28;20249;-81
2022/01/23 15:46:43;;;;;;;17.83;11.30;;;;;;;;;;5047242;28;20218;-80
2022/01/23 15:49:10;;;;;;;17.02;10.75;;;;;;;;;;5047328;28;20304;-80
2022/01/23 15:51:36;;;;;;;15.48;9.45;;;;;;;;;;5030158;28;20212;-81
2022/01/23 15:54:03;;;;;;;17.23;10.60;;;;;;;;;;5047194;28;20208;-81
2022/01/23 15:56:29;;;;;;;19.58;12.02;;;;;;;;;;5046848;28;20192;-81
2022/01/23 15:58:55;;;;;;;17.55;10.93;;;;;;;;;;5029274;28;20178;-82
2022/01/23 16:01:21;;;;;;;17.33;10.70;;;;;;;;;;5029121;28;20188;-81
2022/01/23 16:03:47;;;;;;;17.85;12.30;;;;;;;;;;5028997;28;20536;-82
2022/01/23 16:06:13;;;;;;;17.58;10.68;;;;;;;;;;5043676;28;20182;-82
2022/01/23 16:08:39;;;;;;;20.08;11.18;;;;;;;;;;5029622;28;20189;-81
2022/01/23 16:11:06;;;;;;;13.63;9.75;;;;;;;;;;5047983;28;20638;-81
2022/01/23 16:13:33;;;;;;;17.77;10.88;;;;;;;;;;5048053;28;20177;-81
2022/01/23 16:15:59;;;;;;;15.43;10.88;;;;;;;;;;5039953;28;20201;-82
2022/01/23 16:18:26;;;;;;;16.35;11.20;;;;;;;;;;5029216;28;20570;-81
2022/01/23 16:20:52;;;;;;;15.88;10.48;;;;;;;;;;5045485;28;20185;-81
2022/01/23 16:23:18;;;;;;;18.98;13.55;;;;;;;;;;5029853;28;20186;-81
2022/01/23 16:25:44;;;;;;;19.48;13.50;;;;;;;;;;5025880;28;20177;-81
2022/01/23 16:28:10;;;;;;;20.25;12.60;;;;;;;;;;5046383;28;20224;-82
2022/01/23 16:30:50;;;;;;;23.15;12.38;;;;;;;;;;5027112;28;20205;-82
2022/01/23 16:33:17;;;;;;;17.55;11.63;;;;;;;;;;5044743;28;20191;-81
2022/01/23 16:35:43;;;;;;;19.48;12.77;;;;;;;;;;5023836;28;20185;-82
2022/01/23 16:38:11;;;;;;;17.98;12.10;;;;;;;;;;5026307;28;20561;-82
2022/01/23 16:40:37;;;;;;;18.38;11.65;;;;;;;;;;5029403;28;20336;-82
2022/01/23 16:43:03;;;;;;;20.98;11.38;;;;;;;;;;5027354;28;20174;-82
2022/01/23 16:45:29;;;;;;;23.83;13.00;;;;;;;;;;5040917;28;20224;-82
2022/01/23 16:47:57;;;;;;;19.67;12.10;;;;;;;;;;5038434;28;20238;-82
2022/01/23 16:50:23;;;;;;;19.65;11.73;;;;;;;;;;5043037;28;20289;-82
2022/01/23 16:52:49;;;;;;;21.05;15.43;;;;;;;;;;5041837;28;20217;-82
2022/01/23 16:55:15;;;;;;;21.42;14.00;;;;;;;;;;5044007;28;20223;-82
2022/01/23 16:57:41;;;;;;;21.30;14.60;;;;;;;;;;5042328;28;20182;-82
2022/01/23 17:00:08;;;;;;;17.67;13.10;;;;;;;;;;5043451;28;20646;-83
2022/01/23 17:02:34;;;;;;;20.75;13.60;;;;;;;;;;5044415;28;20235;-82
2022/01/23 17:05:00;;;;;;;22.92;13.82;;;;;;;;;;5042475;28;20186;-81
2022/01/23 17:07:31;;;;;;;13.57;11.13;;;;;;;;;;5042100;28;20234;-82
2022/01/23 17:09:57;;;;;;;15.93;12.05;;;;;;;;;;5043886;28;20472;-82
2022/01/23 17:12:23;;;;;;;19.80;12.20;;;;;;;;;;5043280;28;20208;-82
2022/01/23 17:14:49;;;;;;;21.40;13.85;;;;;;;;;;5035113;28;20206;-82
2022/01/23 17:17:15;;;;;;;19.42;12.80;;;;;;;;;;5039458;28;20271;-82
2022/01/23 17:19:41;;;;;;;25.45;13.05;;;;;;;;;;5043422;28;20186;-82
2022/01/23 17:22:07;;;;;;;19.38;13.63;;;;;;;;;;5042743;28;20233;-83
2022/01/23 17:24:37;;;;;;;17.30;11.63;;;;;;;;;;5041466;28;20173;-82
2022/01/23 17:27:05;;;;;;;18.60;13.35;;;;;;;;;;5040787;28;20277;-82
2022/01/23 17:29:31;;;;;;;21.80;14.48;;;;;;;;;;5042254;28;20186;-81
2022/01/23 17:32:03;;;;;;;21.48;14.63;;;;;;;;;;5042614;28;20359;-82
2022/01/23 17:34:29;;;;;;;22.48;13.30;;;;;;;;;;5043545;28;20177;-82
2022/01/23 17:36:55;;;;;;;18.98;13.75;;;;;;;;;;5042632;28;20178;-82
2022/01/23 17:39:21;;;;;;;21.08;14.85;;;;;;;;;;5042488;28;20268;-82
2022/01/23 17:41:47;;;;;;;18.92;13.02;;;;;;;;;;5041776;28;20210;-82
2022/01/23 17:44:13;;;;;;;22.35;14.73;;;;;;;;;;5042878;28;20211;-82
2022/01/23 17:46:41;;;;;;;21.65;14.23;;;;;;;;;;5040599;28;20225;-82
2022/01/23 17:49:20;;;;;;;21.23;13.52;;;;;;;;;;5040585;28;20633;-82
2022/01/23 17:51:46;;;;;;;21.30;12.82;;;;;;;;;;5038170;28;20812;-82
2022/01/23 17:54:12;;;;;;;20.08;12.55;;;;;;;;;;5041935;28;20257;-82